createdAt,value
2023-05-13T00:02:20.002Z,12.70
2023-05-13T00:04:48.183Z,12.70
2023-05-13T00:07:16.372Z,12.70
2023-05-13T00:09:44.383Z,12.70
2023-05-13T00:12:12.479Z,12.70
2023-05-13T00:14:40.738Z,12.70
2023-05-13T00:17:08.806Z,12.60
2023-05-13T00:19:38.218Z,12.60
2023-05-13T00:22:06.558Z,12.60
2023-05-13T00:24:34.640Z,12.60
2023-05-13T00:27:02.740Z,12.50
2023-05-13T00:29:31.430Z,12.50
2023-05-13T00:31:59.959Z,12.50
2023-05-13T00:34:28.116Z,12.40
2023-05-13T00:36:57.817Z,12.30
2023-05-13T00:39:25.943Z,12.30
2023-05-13T00:41:54.058Z,12.20
2023-05-13T00:44:22.126Z,12.20
2023-05-13T00:46:51.245Z,12.10
2023-05-13T00:49:19.362Z,12.10
2023-05-13T00:51:47.610Z,12.10
2023-05-13T00:54:17.164Z,12.10
2023-05-13T00:56:45.480Z,12.10
2023-05-13T00:59:13.564Z,12.10
2023-05-13T01:01:48.008Z,12.00
2023-05-13T01:04:22.255Z,12.00
2023-05-13T01:06:58.069Z,12.00
2023-05-13T01:09:37.272Z,11.90
2023-05-13T01:12:10.374Z,11.90
2023-05-13T01:14:45.474Z,11.80
2023-05-13T01:17:19.202Z,11.80
2023-05-13T01:19:50.622Z,11.70
2023-05-13T01:22:20.104Z,11.70
2023-05-13T01:24:48.297Z,11.60
2023-05-13T01:27:16.478Z,11.60
2023-05-13T01:29:45.385Z,11.60
2023-05-13T01:32:17.734Z,11.60
2023-05-13T01:34:46.044Z,11.60
2023-05-13T01:37:14.237Z,11.60
2023-05-13T01:39:44.728Z,11.50
2023-05-13T01:42:16.438Z,11.50
2023-05-13T01:44:45.421Z,11.40
2023-05-13T01:47:13.794Z,11.40
2023-05-13T01:49:41.928Z,11.40
2023-05-13T01:52:10.803Z,11.30
2023-05-13T01:54:39.558Z,11.30
2023-05-13T01:57:13.374Z,11.20
2023-05-13T01:59:41.716Z,11.20
2023-05-13T02:02:09.909Z,11.10
2023-05-13T02:04:38.037Z,11.20
2023-05-13T02:07:06.352Z,11.10
2023-05-13T02:09:34.624Z,11.10
2023-05-13T02:12:02.708Z,11.10
2023-05-13T02:14:32.138Z,11.10
2023-05-13T02:17:00.173Z,11.00
2023-05-13T02:19:28.358Z,11.00
2023-05-13T02:21:56.550Z,11.00
2023-05-13T02:24:25.786Z,11.00
2023-05-13T02:26:54.434Z,11.00
2023-05-13T02:29:22.542Z,11.00
2023-05-13T02:31:52.138Z,10.90
2023-05-13T02:34:21.381Z,10.80
2023-05-13T02:36:49.729Z,10.80
2023-05-13T02:39:17.879Z,10.80
2023-05-13T02:41:46.092Z,10.80
2023-05-13T02:44:14.568Z,10.80
2023-05-13T02:46:44.110Z,10.70
2023-05-13T02:49:14.077Z,10.70
2023-05-13T02:51:42.281Z,10.60
2023-05-13T02:54:10.685Z,10.60
2023-05-13T02:56:38.724Z,10.70
2023-05-13T02:59:06.834Z,10.70
2023-05-13T03:01:35.138Z,10.70
2023-05-13T03:04:03.177Z,10.70
2023-05-13T03:06:32.764Z,10.60
2023-05-13T03:09:00.892Z,10.60
2023-05-13T03:11:29.066Z,10.60
2023-05-13T03:13:57.099Z,10.50
2023-05-13T03:16:25.335Z,10.50
2023-05-13T03:18:53.467Z,10.40
2023-05-13T03:21:21.633Z,10.50
2023-05-13T03:23:51.576Z,10.40
2023-05-13T03:26:21.306Z,10.30
2023-05-13T03:28:49.400Z,10.30
2023-05-13T03:31:18.944Z,10.30
2023-05-13T03:33:47.391Z,10.30
2023-05-13T03:36:16.213Z,10.30
2023-05-13T03:38:44.277Z,10.20
2023-05-13T03:41:17.286Z,10.30
2023-05-13T03:43:47.551Z,10.30
2023-05-13T03:46:16.610Z,10.20
2023-05-13T03:48:45.588Z,10.20
2023-05-13T03:51:14.092Z,10.30
2023-05-13T03:53:42.369Z,10.20
2023-05-13T03:56:10.674Z,10.20
2023-05-13T03:58:40.112Z,10.20
2023-05-13T04:01:08.541Z,10.20
2023-05-13T04:03:36.588Z,10.20
2023-05-13T04:06:04.719Z,10.20
2023-05-13T04:08:32.765Z,10.20
2023-05-13T04:11:00.815Z,10.20
2023-05-13T04:13:29.059Z,10.30
2023-05-13T04:15:58.421Z,10.30
2023-05-13T04:18:28.513Z,10.30
2023-05-13T04:20:56.743Z,10.70
2023-05-13T04:23:24.739Z,11.10
2023-05-13T04:25:53.220Z,11.40
2023-05-13T04:28:21.532Z,11.60
2023-05-13T04:30:51.616Z,12.20
2023-05-13T04:33:21.136Z,13.00
2023-05-13T04:35:50.702Z,13.80
2023-05-13T04:38:19.153Z,14.30
2023-05-13T04:40:47.986Z,14.80
2023-05-13T04:43:21.957Z,15.20
2023-05-13T04:45:54.229Z,15.60
2023-05-13T04:48:27.803Z,16.00
2023-05-13T04:50:56.176Z,16.20
2023-05-13T04:53:25.953Z,16.30
2023-05-13T04:56:00.726Z,16.20
2023-05-13T04:58:30.322Z,16.50
2023-05-13T05:00:58.565Z,16.50
2023-05-13T05:03:28.349Z,15.50
2023-05-13T05:05:56.400Z,14.20
2023-05-13T05:08:25.680Z,13.40
2023-05-13T05:10:53.789Z,12.70
2023-05-13T05:13:22.037Z,12.40
2023-05-13T05:15:50.972Z,12.30
2023-05-13T05:18:19.328Z,12.20
2023-05-13T05:20:52.136Z,12.20
2023-05-13T05:23:22.905Z,12.90
2023-05-13T05:26:00.889Z,14.10
2023-05-13T05:28:40.289Z,14.00
2023-05-13T05:31:09.705Z,13.30
2023-05-13T05:33:38.052Z,12.80
2023-05-13T05:36:09.620Z,12.70
2023-05-13T05:38:37.858Z,12.60
2023-05-13T05:41:07.840Z,12.80
2023-05-13T05:43:36.417Z,13.80
2023-05-13T05:46:04.986Z,14.90
2023-05-13T05:48:34.578Z,15.40
2023-05-13T05:51:03.450Z,15.90
2023-05-13T05:53:40.858Z,16.10
2023-05-13T05:56:09.404Z,16.80
2023-05-13T05:58:37.500Z,16.90
2023-05-13T06:01:05.888Z,17.00
2023-05-13T06:03:34.616Z,17.00
2023-05-13T06:06:02.775Z,16.70
2023-05-13T06:08:31.336Z,16.70
2023-05-13T06:11:00.869Z,17.00
2023-05-13T06:13:29.059Z,17.10
2023-05-13T06:15:57.190Z,16.90
2023-05-13T06:18:25.346Z,16.70
2023-05-13T06:20:55.157Z,16.70
2023-05-13T06:23:23.281Z,16.50
2023-05-13T06:25:53.000Z,16.70
2023-05-13T06:28:22.513Z,17.00
2023-05-13T06:30:53.482Z,16.50
2023-05-13T06:33:21.768Z,16.60
2023-05-13T06:35:49.857Z,16.50
2023-05-13T06:38:20.024Z,16.60
2023-05-13T06:40:48.948Z,16.60
2023-05-13T06:43:18.337Z,16.50
2023-05-13T06:45:52.681Z,16.50
2023-05-13T06:48:21.077Z,16.60
2023-05-13T06:50:49.794Z,16.20
2023-05-13T06:53:17.916Z,16.40
2023-05-13T06:55:46.138Z,16.60
2023-05-13T06:58:14.233Z,16.60
2023-05-13T07:00:42.705Z,16.60
2023-05-13T07:03:12.096Z,16.50
2023-05-13T07:05:40.251Z,16.70
2023-05-13T07:08:08.887Z,16.90
2023-05-13T07:10:37.792Z,16.90
2023-05-13T07:13:07.275Z,17.10
2023-05-13T07:15:35.325Z,17.10
2023-05-13T07:18:03.401Z,17.10
2023-05-13T07:20:32.835Z,17.10
2023-05-13T07:23:01.153Z,17.40
2023-05-13T07:25:29.198Z,17.20
2023-05-13T07:27:57.361Z,17.20
2023-05-13T07:30:25.794Z,17.40
2023-05-13T07:32:55.652Z,17.60
2023-05-13T07:35:24.099Z,17.40
2023-05-13T07:37:53.877Z,17.40
2023-05-13T07:40:22.226Z,17.20
2023-05-13T07:42:50.648Z,17.20
2023-05-13T07:45:19.035Z,17.50
2023-05-13T07:47:47.347Z,17.40
2023-05-13T07:50:15.425Z,17.60
2023-05-13T07:52:43.582Z,17.70
2023-05-13T07:55:13.052Z,17.70
2023-05-13T07:57:41.177Z,17.60
2023-05-13T08:00:10.296Z,17.80
2023-05-13T08:02:41.049Z,17.80
2023-05-13T08:05:09.712Z,18.00
2023-05-13T08:07:37.868Z,18.20
2023-05-13T08:10:06.908Z,18.30
2023-05-13T08:12:36.590Z,18.40
2023-05-13T08:15:05.313Z,18.20
2023-05-13T08:17:33.493Z,18.20
2023-05-13T08:20:03.724Z,18.20
2023-05-13T08:22:32.126Z,18.30
2023-05-13T08:25:01.041Z,18.00
2023-05-13T08:27:29.216Z,18.00
2023-05-13T08:29:58.589Z,18.00
2023-05-13T08:32:26.749Z,18.20
2023-05-13T08:34:54.755Z,18.20
2023-05-13T08:37:22.937Z,18.20
2023-05-13T08:39:50.949Z,18.30
2023-05-13T08:42:23.654Z,18.40
2023-05-13T08:44:53.158Z,18.60
2023-05-13T08:47:35.504Z,18.70
2023-05-13T08:50:05.540Z,18.70
2023-05-13T08:52:33.780Z,18.50
2023-05-13T08:55:02.555Z,18.60
2023-05-13T08:57:32.388Z,18.70
2023-05-13T09:00:00.721Z,18.90
2023-05-13T09:02:30.421Z,19.10
2023-05-13T09:05:03.238Z,19.10
2023-05-13T09:07:31.784Z,19.20
2023-05-13T09:10:00.456Z,19.30
2023-05-13T09:12:45.609Z,19.20
2023-05-13T09:15:15.399Z,19.20
2023-05-13T09:17:45.979Z,19.20
2023-05-13T09:20:15.616Z,19.30
2023-05-13T09:22:47.270Z,19.30
2023-05-13T09:25:16.882Z,19.30
2023-05-13T09:27:47.827Z,19.50
2023-05-13T09:30:16.089Z,19.40
2023-05-13T09:32:45.534Z,19.40
2023-05-13T09:35:17.226Z,19.40
2023-05-13T09:37:49.094Z,19.50
2023-05-13T09:40:18.522Z,19.50
2023-05-13T09:42:47.289Z,19.70
2023-05-13T09:45:17.350Z,19.60
2023-05-13T09:47:53.235Z,19.70
2023-05-13T09:50:21.615Z,19.60
2023-05-13T09:52:50.943Z,19.70
2023-05-13T09:55:19.190Z,19.80
2023-05-13T09:57:47.916Z,19.80
2023-05-13T10:00:28.766Z,19.90
2023-05-13T10:03:03.347Z,19.90
2023-05-13T10:05:32.064Z,19.80
2023-05-13T10:08:02.110Z,19.80
2023-05-13T10:10:32.339Z,19.90
2023-05-13T10:13:03.595Z,20.00
2023-05-13T10:15:32.173Z,20.00
2023-05-13T10:18:02.406Z,20.00
2023-05-13T10:20:30.960Z,20.10
2023-05-13T10:22:59.464Z,20.20
2023-05-13T10:25:29.036Z,20.30
2023-05-13T10:27:59.033Z,20.40
2023-05-13T10:30:28.030Z,20.40
2023-05-13T10:32:56.240Z,20.40
2023-05-13T10:35:29.416Z,20.40
2023-05-13T10:38:10.620Z,20.60
2023-05-13T10:41:06.339Z,20.70
2023-05-13T10:43:36.081Z,20.90
2023-05-13T10:46:06.574Z,20.70
2023-05-13T10:48:43.036Z,20.80
2023-05-13T10:51:16.097Z,20.80
2023-05-13T10:53:49.208Z,20.60
2023-05-13T10:56:20.312Z,20.70
2023-05-13T10:58:59.917Z,20.70
2023-05-13T11:01:29.851Z,21.00
2023-05-13T11:04:00.320Z,20.90
2023-05-13T11:06:35.695Z,21.00
2023-05-13T11:09:07.072Z,21.00
2023-05-13T11:11:36.617Z,21.20
2023-05-13T11:14:09.733Z,21.20
2023-05-13T11:16:38.563Z,21.20
2023-05-13T11:19:19.438Z,21.20
2023-05-13T11:21:51.784Z,21.10
2023-05-13T11:24:21.328Z,21.20
2023-05-13T11:26:51.168Z,21.10
2023-05-13T11:29:30.787Z,21.20
2023-05-13T11:32:00.805Z,21.30
2023-05-13T11:34:30.272Z,21.40
2023-05-13T11:37:09.613Z,21.40
2023-05-13T11:39:41.249Z,21.50
2023-05-13T11:42:10.670Z,21.60
2023-05-13T11:44:46.716Z,21.50
2023-05-13T11:47:14.811Z,21.40
2023-05-13T11:49:43.955Z,21.30
2023-05-13T11:52:15.101Z,21.50
2023-05-13T11:54:45.122Z,21.60
2023-05-13T11:57:24.344Z,21.70
2023-05-13T11:59:54.334Z,21.60
2023-05-13T12:02:23.541Z,21.70
2023-05-13T12:04:52.693Z,21.60
2023-05-13T12:07:23.711Z,21.50
2023-05-13T12:09:52.346Z,21.60
2023-05-13T12:12:21.300Z,21.80
2023-05-13T12:14:51.225Z,22.00
2023-05-13T12:17:19.888Z,22.00
2023-05-13T12:20:11.930Z,21.90
2023-05-13T12:22:53.966Z,21.80
2023-05-13T12:25:51.219Z,22.00
2023-05-13T12:28:21.246Z,22.00
2023-05-13T12:30:54.723Z,22.10
2023-05-13T12:33:24.154Z,22.20
2023-05-13T12:35:53.503Z,22.10
2023-05-13T12:38:24.554Z,21.90
2023-05-13T12:40:53.166Z,21.90
2023-05-13T12:43:21.434Z,22.30
2023-05-13T12:45:55.125Z,22.50
2023-05-13T12:48:25.846Z,22.40
2023-05-13T12:50:53.902Z,22.40
2023-05-13T12:53:23.313Z,21.80
2023-05-13T12:55:51.491Z,21.70
2023-05-13T12:58:19.596Z,21.80
2023-05-13T13:00:47.759Z,22.10
2023-05-13T13:03:16.079Z,23.00
2023-05-13T13:05:44.382Z,23.00
2023-05-13T13:08:12.437Z,23.60
2023-05-13T13:10:42.282Z,24.00
2023-05-13T13:13:10.375Z,24.40
2023-05-13T13:15:39.315Z,24.00
2023-05-13T13:18:07.560Z,24.40
2023-05-13T13:20:35.815Z,24.20
2023-05-13T13:23:03.821Z,23.90
2023-05-13T13:25:32.937Z,23.90
2023-05-13T13:28:02.364Z,24.00
2023-05-13T13:30:31.267Z,24.80
2023-05-13T13:32:59.554Z,24.50
2023-05-13T13:35:27.642Z,23.90
2023-05-13T13:37:55.916Z,23.70
2023-05-13T13:40:24.528Z,23.40
2023-05-13T13:42:52.758Z,23.20
2023-05-13T13:45:24.214Z,22.80
2023-05-13T13:47:52.421Z,22.80
2023-05-13T13:50:20.761Z,22.50
2023-05-13T13:52:48.886Z,22.10
2023-05-13T13:55:17.060Z,21.80
2023-05-13T13:57:45.100Z,21.30
2023-05-13T14:00:14.357Z,21.20
2023-05-13T14:02:44.461Z,21.00
2023-05-13T14:05:13.296Z,21.00
2023-05-13T14:07:41.484Z,21.10
2023-05-13T14:10:10.920Z,21.00
2023-05-13T14:12:39.606Z,21.00
2023-05-13T14:15:08.894Z,21.00
2023-05-13T14:17:37.133Z,21.00
2023-05-13T14:20:10.158Z,21.00
2023-05-13T14:22:38.217Z,21.10
2023-05-13T14:25:07.067Z,21.20
2023-05-13T14:27:36.349Z,21.30
2023-05-13T14:30:05.070Z,21.40
2023-05-13T14:32:33.398Z,21.60
2023-05-13T14:35:01.521Z,21.80
2023-05-13T14:37:31.139Z,22.20
2023-05-13T14:39:59.232Z,22.20
2023-05-13T14:42:27.444Z,21.90
2023-05-13T14:44:55.554Z,21.60
2023-05-13T14:47:23.892Z,21.50
2023-05-13T14:49:51.940Z,21.40
2023-05-13T14:52:19.983Z,21.30
2023-05-13T14:54:49.449Z,21.40
2023-05-13T14:57:17.603Z,21.40
2023-05-13T14:59:45.783Z,21.40
2023-05-13T15:02:14.437Z,21.30
2023-05-13T15:04:42.443Z,21.40
2023-05-13T15:07:10.506Z,21.60
2023-05-13T15:09:38.793Z,21.70
2023-05-13T15:12:09.488Z,22.00
2023-05-13T15:14:37.508Z,21.90
2023-05-13T15:17:10.668Z,21.90
2023-05-13T15:19:39.412Z,22.10
2023-05-13T15:22:07.576Z,22.10
2023-05-13T15:24:37.257Z,22.20
2023-05-13T15:27:05.641Z,22.30
2023-05-13T15:29:35.232Z,22.60
2023-05-13T15:32:03.330Z,22.60
2023-05-13T15:34:31.337Z,22.10
2023-05-13T15:36:59.363Z,21.70
2023-05-13T15:39:27.371Z,21.50
2023-05-13T15:41:55.575Z,21.60
2023-05-13T15:44:23.763Z,21.70
2023-05-13T15:46:53.240Z,21.70
2023-05-13T15:49:22.051Z,21.70
2023-05-13T15:51:50.186Z,21.70
2023-05-13T15:54:18.320Z,21.60
2023-05-13T15:56:46.342Z,21.70
2023-05-13T15:59:14.546Z,21.60
2023-05-13T16:01:42.645Z,21.70
2023-05-13T16:04:12.195Z,21.70
2023-05-13T16:06:40.307Z,21.70
2023-05-13T16:09:08.584Z,21.50
2023-05-13T16:11:36.649Z,21.50
2023-05-13T16:14:07.491Z,21.60
2023-05-13T16:16:35.822Z,21.70
2023-05-13T16:19:04.574Z,21.60
2023-05-13T16:21:34.227Z,21.70
2023-05-13T16:24:02.378Z,21.80
2023-05-13T16:26:31.537Z,21.90
2023-05-13T16:28:59.566Z,21.80
2023-05-13T16:31:27.618Z,21.70
2023-05-13T16:33:55.740Z,21.60
2023-05-13T16:36:24.225Z,21.60
2023-05-13T16:38:53.741Z,21.60
2023-05-13T16:41:22.787Z,21.50
2023-05-13T16:43:50.913Z,21.50
2023-05-13T16:46:18.958Z,21.50
2023-05-13T16:48:47.074Z,21.50
2023-05-13T16:51:15.348Z,21.50
2023-05-13T16:53:43.412Z,21.60
2023-05-13T16:56:12.793Z,21.70
2023-05-13T16:58:40.994Z,21.50
2023-05-13T17:01:09.084Z,21.30
2023-05-13T17:03:37.244Z,21.20
2023-05-13T17:06:07.324Z,21.00
2023-05-13T17:08:35.399Z,20.80
2023-05-13T17:11:03.437Z,20.60
2023-05-13T17:13:33.135Z,20.40
2023-05-13T17:16:01.224Z,20.10
2023-05-13T17:18:29.247Z,19.90
2023-05-13T17:20:57.292Z,19.70
2023-05-13T17:23:25.890Z,19.50
2023-05-13T17:25:53.935Z,19.50
2023-05-13T17:28:22.053Z,19.30
2023-05-13T17:30:51.709Z,19.20
2023-05-13T17:33:20.019Z,19.10
2023-05-13T17:35:48.154Z,19.00
2023-05-13T17:38:16.414Z,18.90
2023-05-13T17:40:44.496Z,18.70
2023-05-13T17:43:12.495Z,18.70
2023-05-13T17:45:40.623Z,18.70
2023-05-13T17:48:10.113Z,18.60
2023-05-13T17:50:38.191Z,18.50
2023-05-13T17:53:06.533Z,18.40
2023-05-13T17:55:34.578Z,18.40
2023-05-13T17:58:03.083Z,18.40
2023-05-13T18:00:31.264Z,18.30
2023-05-13T18:02:59.492Z,18.30
2023-05-13T18:05:29.009Z,18.20
2023-05-13T18:07:57.412Z,18.20
2023-05-13T18:10:27.327Z,18.20
2023-05-13T18:12:55.448Z,18.20
2023-05-13T18:15:23.647Z,18.20
2023-05-13T18:17:52.042Z,18.20
2023-05-13T18:20:20.416Z,18.20
2023-05-13T18:22:50.279Z,18.20
2023-05-13T18:25:18.520Z,18.10
2023-05-13T18:27:46.695Z,18.10
2023-05-13T18:30:16.087Z,18.00
2023-05-13T18:32:44.538Z,18.00
2023-05-13T18:35:12.741Z,17.90
2023-05-13T18:37:40.871Z,17.90
2023-05-13T18:40:11.358Z,17.80
2023-05-13T18:42:39.494Z,17.70
2023-05-13T18:45:08.691Z,17.70
2023-05-13T18:47:36.732Z,17.70
2023-05-13T18:50:05.475Z,17.80
2023-05-13T18:52:33.674Z,17.70
2023-05-13T18:55:04.860Z,17.60
2023-05-13T18:57:34.361Z,17.50
2023-05-13T19:00:02.418Z,17.50
2023-05-13T19:02:30.678Z,17.40
2023-05-13T19:04:58.995Z,17.40
2023-05-13T19:07:27.433Z,17.40
2023-05-13T19:09:55.409Z,17.30
2023-05-13T19:12:23.487Z,17.20
2023-05-13T19:14:52.887Z,17.10
2023-05-13T19:17:21.078Z,16.90
2023-05-13T19:19:49.168Z,16.80
2023-05-13T19:22:17.197Z,16.80
2023-05-13T19:24:45.302Z,16.90
2023-05-13T19:27:13.751Z,16.90
2023-05-13T19:29:41.788Z,16.80
2023-05-13T19:32:11.327Z,16.80
2023-05-13T19:34:39.387Z,16.60
2023-05-13T19:37:07.458Z,16.50
2023-05-13T19:39:35.506Z,16.50
2023-05-13T19:42:04.051Z,16.40
2023-05-13T19:44:32.172Z,16.30
2023-05-13T19:47:00.476Z,16.20
2023-05-13T19:49:31.162Z,16.10
2023-05-13T19:51:59.429Z,16.00
2023-05-13T19:54:27.555Z,15.80
2023-05-13T19:56:56.066Z,15.80
2023-05-13T19:59:24.248Z,15.70
2023-05-13T20:01:52.780Z,15.70
2023-05-13T20:04:20.987Z,15.60
2023-05-13T20:06:50.399Z,15.50
2023-05-13T20:09:18.558Z,15.50
2023-05-13T20:11:46.597Z,15.50
2023-05-13T20:14:15.829Z,15.30
2023-05-13T20:16:43.949Z,15.30
2023-05-13T20:19:12.158Z,15.20
2023-05-13T20:21:40.803Z,15.20
2023-05-13T20:24:10.236Z,15.10
2023-05-13T20:26:38.353Z,15.00
2023-05-13T20:29:06.411Z,15.00
2023-05-13T20:31:34.547Z,14.90
2023-05-13T20:34:03.329Z,14.90
2023-05-13T20:36:31.881Z,14.80
2023-05-13T20:38:59.907Z,14.80
2023-05-13T20:41:29.387Z,14.80
2023-05-13T20:43:57.379Z,14.70
2023-05-13T20:46:25.967Z,14.70
2023-05-13T20:48:54.278Z,14.60
2023-05-13T20:51:22.414Z,14.60
2023-05-13T20:53:50.558Z,14.50
2023-05-13T20:56:18.869Z,14.40
2023-05-13T20:58:48.321Z,14.40
2023-05-13T21:01:16.436Z,14.30
2023-05-13T21:03:44.610Z,14.20
2023-05-13T21:06:12.748Z,14.10
2023-05-13T21:08:40.816Z,14.10
2023-05-13T21:11:08.938Z,14.10
2023-05-13T21:13:37.167Z,14.00
2023-05-13T21:16:07.003Z,13.90
2023-05-13T21:18:35.227Z,13.90
2023-05-13T21:21:08.392Z,13.90
2023-05-13T21:23:36.962Z,13.90
2023-05-13T21:26:06.235Z,13.80
2023-05-13T21:28:34.320Z,13.80
2023-05-13T21:31:02.564Z,13.80
2023-05-13T21:33:32.193Z,13.70
2023-05-13T21:36:00.388Z,13.70
2023-05-13T21:38:28.583Z,13.60
2023-05-13T21:40:56.666Z,13.60
2023-05-13T21:43:24.696Z,13.50
2023-05-13T21:45:52.892Z,13.50
2023-05-13T21:48:21.144Z,13.40
2023-05-13T21:50:50.934Z,13.40
2023-05-13T21:53:19.070Z,13.40
2023-05-13T21:55:47.233Z,13.30
2023-05-13T21:58:15.370Z,13.20
2023-05-13T22:00:43.447Z,13.10
2023-05-13T22:03:11.501Z,13.10
2023-05-13T22:05:43.944Z,13.10
2023-05-13T22:08:13.827Z,13.10
2023-05-13T22:10:41.842Z,13.10
2023-05-13T22:13:09.916Z,13.00
2023-05-13T22:15:38.002Z,13.00
2023-05-13T22:18:06.891Z,13.00
2023-05-13T22:20:34.972Z,12.90
2023-05-13T22:23:03.078Z,12.90
2023-05-13T22:25:32.629Z,12.90
2023-05-13T22:28:00.675Z,12.90
2023-05-13T22:30:28.852Z,12.80
2023-05-13T22:32:57.011Z,12.70
2023-05-13T22:35:25.181Z,12.80
2023-05-13T22:37:53.487Z,12.70
2023-05-13T22:40:21.803Z,12.70
2023-05-13T22:42:51.528Z,12.60
2023-05-13T22:45:19.684Z,12.60
2023-05-13T22:47:48.567Z,12.50
2023-05-13T22:50:16.628Z,12.60
2023-05-13T22:52:44.722Z,12.50
2023-05-13T22:55:12.761Z,12.50
2023-05-13T22:57:40.924Z,12.50
2023-05-13T23:00:11.921Z,12.50
2023-05-13T23:02:40.092Z,12.40
2023-05-13T23:05:08.947Z,12.40
2023-05-13T23:07:37.006Z,12.40
2023-05-13T23:10:05.727Z,12.30
2023-05-13T23:12:34.331Z,12.20
2023-05-13T23:15:02.567Z,12.20
2023-05-13T23:17:32.273Z,12.20
2023-05-13T23:20:00.450Z,12.10
2023-05-13T23:22:28.490Z,12.10
2023-05-13T23:24:56.647Z,12.10
2023-05-13T23:27:24.730Z,12.00
2023-05-13T23:29:52.951Z,12.00
2023-05-13T23:32:21.006Z,12.00
2023-05-13T23:34:50.661Z,12.00
2023-05-13T23:37:19.022Z,11.90
2023-05-13T23:39:47.044Z,11.90
2023-05-13T23:42:15.122Z,11.80
2023-05-13T23:44:43.148Z,11.80
2023-05-13T23:47:12.078Z,11.70
2023-05-13T23:49:40.255Z,11.70
2023-05-13T23:52:09.696Z,11.70
2023-05-13T23:54:37.946Z,11.70
2023-05-13T23:57:06.378Z,11.70
2023-05-13T23:59:34.422Z,11.70
